sensor_id;sensor_type;location;lat;lon;timestamp;P1;durP1;ratioP1;P2;durP2;ratioP2
36185;SDS011;22228;53.222;7.446;2023-09-12T00:00:32;51.57;;;46.30;;
36185;SDS011;22228;53.222;7.446;2023-09-12T00:02:53;55.27;;;47.90;;
36185;SDS011;22228;53.222;7.446;2023-09-12T00:05:14;56.77;;;46.97;;
36185;SDS011;22228;53.222;7.446;2023-09-12T00:07:34;55.33;;;46.67;;
36185;SDS011;22228;53.222;7.446;2023-09-12T00:09:55;56.57;;;48.00;;
36185;SDS011;22228;53.222;7.446;2023-09-12T00:12:17;60.43;;;49.90;;
36185;SDS011;22228;53.222;7.446;2023-09-12T00:14:37;58.90;;;51.57;;
36185;SDS011;22228;53.222;7.446;2023-09-12T03:00:11;80.13;;;61.27;;
36185;SDS011;22228;53.222;7.446;2023-09-12T03:02:32;88.53;;;67.23;;
36185;SDS011;22228;53.222;7.446;2023-09-12T03:04:53;83.23;;;65.23;;
36185;SDS011;22228;53.222;7.446;2023-09-12T03:07:14;84.97;;;66.40;;
36185;SDS011;22228;53.222;7.446;2023-09-12T03:09:35;80.47;;;64.20;;
36185;SDS011;22228;53.222;7.446;2023-09-12T03:11:57;67.73;;;55.73;;
36185;SDS011;22228;53.222;7.446;2023-09-12T03:14:17;72.93;;;57.27;;
36185;SDS011;22228;53.222;7.446;2023-09-12T03:16:39;74.93;;;56.40;;
36185;SDS011;22228;53.222;7.446;2023-09-12T03:19:00;69.43;;;55.37;;
36185;SDS011;22228;53.222;7.446;2023-09-12T03:21:21;78.27;;;61.73;;
36185;SDS011;22228;53.222;7.446;2023-09-12T03:23:41;87.17;;;64.97;;
36185;SDS011;22228;53.222;7.446;2023-09-12T03:26:02;92.37;;;68.33;;
36185;SDS011;22228;53.222;7.446;2023-09-12T03:28:23;77.63;;;60.33;;
36185;SDS011;22228;53.222;7.446;2023-09-12T03:30:44;83.90;;;60.67;;
36185;SDS011;22228;53.222;7.446;2023-09-12T03:33:06;80.83;;;61.50;;
36185;SDS011;22228;53.222;7.446;2023-09-12T03:35:28;88.73;;;68.70;;
36185;SDS011;22228;53.222;7.446;2023-09-12T03:37:48;87.87;;;65.63;;
36185;SDS011;22228;53.222;7.446;2023-09-12T03:40:09;98.53;;;72.53;;
36185;SDS011;22228;53.222;7.446;2023-09-12T03:42:31;89.93;;;66.23;;
36185;SDS011;22228;53.222;7.446;2023-09-12T03:44:52;92.77;;;66.70;;
36185;SDS011;22228;53.222;7.446;2023-09-12T03:47:12;89.73;;;68.63;;
36185;SDS011;22228;53.222;7.446;2023-09-12T03:49:34;92.17;;;67.13;;
36185;SDS011;22228;53.222;7.446;2023-09-12T03:51:54;91.13;;;68.37;;
36185;SDS011;22228;53.222;7.446;2023-09-12T03:54:15;98.50;;;71.03;;
36185;SDS011;22228;53.222;7.446;2023-09-12T03:56:36;97.83;;;68.60;;
36185;SDS011;22228;53.222;7.446;2023-09-12T03:58:57;90.63;;;68.10;;
36185;SDS011;22228;53.222;7.446;2023-09-12T04:01:19;84.67;;;64.67;;
36185;SDS011;22228;53.222;7.446;2023-09-12T04:03:39;83.97;;;62.00;;
36185;SDS011;22228;53.222;7.446;2023-09-12T04:06:01;83.23;;;64.77;;
36185;SDS011;22228;53.222;7.446;2023-09-12T04:08:22;84.27;;;63.83;;
36185;SDS011;22228;53.222;7.446;2023-09-12T04:10:43;82.33;;;63.33;;
36185;SDS011;22228;53.222;7.446;2023-09-12T04:13:03;81.57;;;62.80;;
36185;SDS011;22228;53.222;7.446;2023-09-12T04:15:24;85.83;;;65.43;;
36185;SDS011;22228;53.222;7.446;2023-09-12T04:17:44;80.50;;;61.07;;
36185;SDS011;22228;53.222;7.446;2023-09-12T04:20:05;77.60;;;60.03;;
36185;SDS011;22228;53.222;7.446;2023-09-12T04:22:28;82.13;;;63.90;;
36185;SDS011;22228;53.222;7.446;2023-09-12T04:24:49;78.77;;;62.47;;
36185;SDS011;22228;53.222;7.446;2023-09-12T04:27:09;82.33;;;63.87;;
36185;SDS011;22228;53.222;7.446;2023-09-12T04:29:31;88.73;;;65.20;;
36185;SDS011;22228;53.222;7.446;2023-09-12T04:31:52;87.13;;;64.60;;
36185;SDS011;22228;53.222;7.446;2023-09-12T04:34:18;85.10;;;64.13;;
36185;SDS011;22228;53.222;7.446;2023-09-12T04:36:38;85.30;;;65.13;;
36185;SDS011;22228;53.222;7.446;2023-09-12T04:39:00;87.60;;;66.03;;
36185;SDS011;22228;53.222;7.446;2023-09-12T04:41:22;90.10;;;66.00;;
36185;SDS011;22228;53.222;7.446;2023-09-12T04:43:43;93.97;;;70.43;;
36185;SDS011;22228;53.222;7.446;2023-09-12T04:46:03;84.03;;;66.00;;
36185;SDS011;22228;53.222;7.446;2023-09-12T04:48:24;85.40;;;63.27;;
36185;SDS011;22228;53.222;7.446;2023-09-12T04:50:44;81.07;;;61.30;;
36185;SDS011;22228;53.222;7.446;2023-09-12T04:53:05;73.00;;;56.27;;
36185;SDS011;22228;53.222;7.446;2023-09-12T04:55:26;75.10;;;57.47;;
36185;SDS011;22228;53.222;7.446;2023-09-12T04:57:48;82.33;;;59.33;;
36185;SDS011;22228;53.222;7.446;2023-09-12T05:00:09;99.97;;;71.37;;
36185;SDS011;22228;53.222;7.446;2023-09-12T05:02:30;91.80;;;65.63;;
36185;SDS011;22228;53.222;7.446;2023-09-12T05:04:51;95.97;;;67.10;;
36185;SDS011;22228;53.222;7.446;2023-09-12T05:07:11;134.20;;;65.20;;
36185;SDS011;22228;53.222;7.446;2023-09-12T05:09:32;115.20;;;61.17;;
36185;SDS011;22228;53.222;7.446;2023-09-12T05:11:54;78.80;;;61.53;;
36185;SDS011;22228;53.222;7.446;2023-09-12T05:14:14;91.97;;;60.37;;
36185;SDS011;22228;53.222;7.446;2023-09-12T05:16:35;74.43;;;59.43;;
36185;SDS011;22228;53.222;7.446;2023-09-12T05:18:56;66.13;;;54.57;;
36185;SDS011;22228;53.222;7.446;2023-09-12T05:21:16;70.67;;;55.97;;
36185;SDS011;22228;53.222;7.446;2023-09-12T05:23:37;67.40;;;54.23;;
36185;SDS011;22228;53.222;7.446;2023-09-12T05:25:58;66.50;;;55.30;;
36185;SDS011;22228;53.222;7.446;2023-09-12T05:28:19;79.97;;;55.67;;
36185;SDS011;22228;53.222;7.446;2023-09-12T05:30:42;101.70;;;57.77;;
36185;SDS011;22228;53.222;7.446;2023-09-12T05:33:03;62.13;;;52.23;;
36185;SDS011;22228;53.222;7.446;2023-09-12T05:35:24;120.33;;;53.83;;
36185;SDS011;22228;53.222;7.446;2023-09-12T05:37:46;192.90;;;58.07;;
36185;SDS011;22228;53.222;7.446;2023-09-12T05:40:07;80.13;;;50.20;;
36185;SDS011;22228;53.222;7.446;2023-09-12T05:42:29;104.10;;;48.87;;
36185;SDS011;22228;53.222;7.446;2023-09-12T05:44:50;86.00;;;47.53;;
36185;SDS011;22228;53.222;7.446;2023-09-12T05:47:12;64.07;;;47.80;;
36185;SDS011;22228;53.222;7.446;2023-09-12T05:49:33;52.97;;;47.43;;
36185;SDS011;22228;53.222;7.446;2023-09-12T05:51:53;53.63;;;47.43;;
36185;SDS011;22228;53.222;7.446;2023-09-12T05:54:14;52.63;;;47.20;;
36185;SDS011;22228;53.222;7.446;2023-09-12T05:56:34;59.20;;;49.67;;
36185;SDS011;22228;53.222;7.446;2023-09-12T05:58:55;54.37;;;48.43;;
36185;SDS011;22228;53.222;7.446;2023-09-12T06:01:16;58.47;;;49.73;;
36185;SDS011;22228;53.222;7.446;2023-09-12T06:03:37;56.33;;;49.33;;
36185;SDS011;22228;53.222;7.446;2023-09-12T06:05:57;59.60;;;50.67;;
36185;SDS011;22228;53.222;7.446;2023-09-12T06:08:18;61.20;;;51.00;;
36185;SDS011;22228;53.222;7.446;2023-09-12T06:10:38;66.77;;;53.37;;
36185;SDS011;22228;53.222;7.446;2023-09-12T06:12:59;65.57;;;52.80;;
36185;SDS011;22228;53.222;7.446;2023-09-12T06:15:19;71.80;;;55.30;;
36185;SDS011;22228;53.222;7.446;2023-09-12T06:17:41;69.20;;;54.20;;
36185;SDS011;22228;53.222;7.446;2023-09-12T06:20:02;62.73;;;51.57;;
36185;SDS011;22228;53.222;7.446;2023-09-12T06:22:24;60.67;;;51.77;;
36185;SDS011;22228;53.222;7.446;2023-09-12T06:24:45;85.93;;;50.70;;
36185;SDS011;22228;53.222;7.446;2023-09-12T06:27:05;81.43;;;50.67;;
36185;SDS011;22228;53.222;7.446;2023-09-12T06:29:26;82.60;;;50.80;;
36185;SDS011;22228;53.222;7.446;2023-09-12T06:31:46;83.23;;;51.33;;
36185;SDS011;22228;53.222;7.446;2023-09-12T06:34:08;60.37;;;50.03;;
36185;SDS011;22228;53.222;7.446;2023-09-12T06:36:29;62.17;;;51.20;;
36185;SDS011;22228;53.222;7.446;2023-09-12T06:38:49;58.60;;;50.17;;
36185;SDS011;22228;53.222;7.446;2023-09-12T06:41:10;57.70;;;50.37;;
36185;SDS011;22228;53.222;7.446;2023-09-12T06:43:30;66.93;;;53.47;;
36185;SDS011;22228;53.222;7.446;2023-09-12T06:45:51;72.40;;;56.17;;
36185;SDS011;22228;53.222;7.446;2023-09-12T06:48:11;63.20;;;52.60;;
36185;SDS011;22228;53.222;7.446;2023-09-12T06:50:34;74.40;;;56.60;;
36185;SDS011;22228;53.222;7.446;2023-09-12T06:52:56;61.20;;;50.43;;
36185;SDS011;22228;53.222;7.446;2023-09-12T06:55:17;84.37;;;59.33;;
36185;SDS011;22228;53.222;7.446;2023-09-12T06:57:37;77.13;;;56.90;;
36185;SDS011;22228;53.222;7.446;2023-09-12T06:59:59;73.50;;;56.37;;
36185;SDS011;22228;53.222;7.446;2023-09-12T07:02:20;68.40;;;55.53;;
36185;SDS011;22228;53.222;7.446;2023-09-12T07:04:40;70.17;;;55.90;;
36185;SDS011;22228;53.222;7.446;2023-09-12T07:07:02;70.13;;;55.63;;
36185;SDS011;22228;53.222;7.446;2023-09-12T07:09:24;60.10;;;50.57;;
36185;SDS011;22228;53.222;7.446;2023-09-12T07:11:44;60.50;;;50.50;;
36185;SDS011;22228;53.222;7.446;2023-09-12T07:14:05;60.50;;;51.30;;
36185;SDS011;22228;53.222;7.446;2023-09-12T07:16:25;58.97;;;48.73;;
36185;SDS011;22228;53.222;7.446;2023-09-12T07:18:47;54.30;;;47.40;;
36185;SDS011;22228;53.222;7.446;2023-09-12T07:21:07;54.50;;;47.30;;
36185;SDS011;22228;53.222;7.446;2023-09-12T07:23:31;51.43;;;45.30;;
36185;SDS011;22228;53.222;7.446;2023-09-12T07:25:52;52.33;;;46.40;;
36185;SDS011;22228;53.222;7.446;2023-09-12T07:28:14;48.50;;;43.17;;
36185;SDS011;22228;53.222;7.446;2023-09-12T07:30:34;47.90;;;42.63;;
36185;SDS011;22228;53.222;7.446;2023-09-12T07:32:55;45.93;;;41.23;;
36185;SDS011;22228;53.222;7.446;2023-09-12T07:35:16;43.50;;;39.20;;
36185;SDS011;22228;53.222;7.446;2023-09-12T07:37:35;43.27;;;38.87;;
36185;SDS011;22228;53.222;7.446;2023-09-12T07:39:57;43.87;;;39.37;;
36185;SDS011;22228;53.222;7.446;2023-09-12T07:42:20;43.53;;;39.03;;
36185;SDS011;22228;53.222;7.446;2023-09-12T07:44:41;42.80;;;38.67;;
36185;SDS011;22228;53.222;7.446;2023-09-12T07:47:01;44.77;;;40.10;;
36185;SDS011;22228;53.222;7.446;2023-09-12T07:49:22;46.53;;;41.73;;
36185;SDS011;22228;53.222;7.446;2023-09-12T07:51:45;45.73;;;41.07;;
36185;SDS011;22228;53.222;7.446;2023-09-12T07:54:06;49.77;;;43.53;;
36185;SDS011;22228;53.222;7.446;2023-09-12T07:56:28;49.17;;;44.10;;
36185;SDS011;22228;53.222;7.446;2023-09-12T07:58:48;43.07;;;38.67;;
36185;SDS011;22228;53.222;7.446;2023-09-12T08:01:09;41.77;;;37.47;;
36185;SDS011;22228;53.222;7.446;2023-09-12T08:03:30;37.57;;;33.87;;
36185;SDS011;22228;53.222;7.446;2023-09-12T08:05:54;37.03;;;33.40;;
36185;SDS011;22228;53.222;7.446;2023-09-12T08:08:15;38.90;;;34.90;;
36185;SDS011;22228;53.222;7.446;2023-09-12T08:10:36;38.47;;;34.40;;
36185;SDS011;22228;53.222;7.446;2023-09-12T08:12:58;40.17;;;35.77;;
36185;SDS011;22228;53.222;7.446;2023-09-12T08:15:19;41.33;;;37.07;;
36185;SDS011;22228;53.222;7.446;2023-09-12T08:17:39;44.70;;;39.93;;
36185;SDS011;22228;53.222;7.446;2023-09-12T08:20:00;41.50;;;37.20;;
36185;SDS011;22228;53.222;7.446;2023-09-12T08:22:22;40.43;;;36.13;;
36185;SDS011;22228;53.222;7.446;2023-09-12T08:24:42;42.57;;;38.17;;
36185;SDS011;22228;53.222;7.446;2023-09-12T08:27:03;42.03;;;37.67;;
36185;SDS011;22228;53.222;7.446;2023-09-12T08:29:25;44.73;;;38.17;;
36185;SDS011;22228;53.222;7.446;2023-09-12T08:31:47;42.50;;;38.00;;
36185;SDS011;22228;53.222;7.446;2023-09-12T08:34:07;39.17;;;35.10;;
36185;SDS011;22228;53.222;7.446;2023-09-12T08:36:28;40.57;;;36.20;;
36185;SDS011;22228;53.222;7.446;2023-09-12T08:38:49;39.10;;;34.90;;
36185;SDS011;22228;53.222;7.446;2023-09-12T08:41:09;41.53;;;37.23;;
36185;SDS011;22228;53.222;7.446;2023-09-12T08:43:29;44.93;;;40.03;;
36185;SDS011;22228;53.222;7.446;2023-09-12T08:45:51;43.57;;;38.90;;
36185;SDS011;22228;53.222;7.446;2023-09-12T08:48:12;41.30;;;36.90;;
36185;SDS011;22228;53.222;7.446;2023-09-12T08:50:33;42.27;;;37.80;;
36185;SDS011;22228;53.222;7.446;2023-09-12T08:52:53;43.93;;;39.47;;
36185;SDS011;22228;53.222;7.446;2023-09-12T08:55:14;42.67;;;38.13;;
36185;SDS011;22228;53.222;7.446;2023-09-12T08:57:35;41.87;;;37.47;;
36185;SDS011;22228;53.222;7.446;2023-09-12T08:59:57;40.57;;;36.40;;
36185;SDS011;22228;53.222;7.446;2023-09-12T09:02:22;41.13;;;36.70;;
36185;SDS011;22228;53.222;7.446;2023-09-12T09:04:42;37.57;;;33.87;;
36185;SDS011;22228;53.222;7.446;2023-09-12T09:07:06;38.73;;;34.77;;
36185;SDS011;22228;53.222;7.446;2023-09-12T09:09:27;39.57;;;35.40;;
36185;SDS011;22228;53.222;7.446;2023-09-12T09:11:48;38.50;;;34.50;;
36185;SDS011;22228;53.222;7.446;2023-09-12T09:14:09;36.20;;;32.40;;
36185;SDS011;22228;53.222;7.446;2023-09-12T09:16:29;36.23;;;32.33;;
36185;SDS011;22228;53.222;7.446;2023-09-12T09:18:53;36.07;;;32.33;;
36185;SDS011;22228;53.222;7.446;2023-09-12T09:21:16;33.57;;;29.93;;
36185;SDS011;22228;53.222;7.446;2023-09-12T09:23:40;33.20;;;29.70;;
36185;SDS011;22228;53.222;7.446;2023-09-12T09:26:05;35.23;;;31.50;;
36185;SDS011;22228;53.222;7.446;2023-09-12T09:28:25;34.83;;;31.27;;
36185;SDS011;22228;53.222;7.446;2023-09-12T09:30:47;37.23;;;33.33;;
36185;SDS011;22228;53.222;7.446;2023-09-12T09:33:10;37.23;;;33.43;;
36185;SDS011;22228;53.222;7.446;2023-09-12T09:35:32;36.30;;;32.43;;
36185;SDS011;22228;53.222;7.446;2023-09-12T09:37:53;37.30;;;33.47;;
36185;SDS011;22228;53.222;7.446;2023-09-12T09:40:14;34.03;;;30.53;;
36185;SDS011;22228;53.222;7.446;2023-09-12T09:42:34;31.30;;;28.10;;
36185;SDS011;22228;53.222;7.446;2023-09-12T09:44:55;33.63;;;30.13;;
36185;SDS011;22228;53.222;7.446;2023-09-12T09:47:16;32.93;;;29.63;;
36185;SDS011;22228;53.222;7.446;2023-09-12T09:49:38;34.17;;;30.47;;
36185;SDS011;22228;53.222;7.446;2023-09-12T09:52:00;35.77;;;32.10;;
36185;SDS011;22228;53.222;7.446;2023-09-12T09:54:23;36.60;;;32.73;;
36185;SDS011;22228;53.222;7.446;2023-09-12T09:56:45;37.80;;;33.53;;
36185;SDS011;22228;53.222;7.446;2023-09-12T09:59:06;39.60;;;35.50;;
36185;SDS011;22228;53.222;7.446;2023-09-12T10:01:28;38.07;;;33.97;;
36185;SDS011;22228;53.222;7.446;2023-09-12T10:03:50;38.90;;;34.90;;
36185;SDS011;22228;53.222;7.446;2023-09-12T10:06:11;34.50;;;31.17;;
36185;SDS011;22228;53.222;7.446;2023-09-12T10:08:34;36.93;;;33.23;;
36185;SDS011;22228;53.222;7.446;2023-09-12T10:10:57;38.30;;;34.33;;
36185;SDS011;22228;53.222;7.446;2023-09-12T10:13:18;35.70;;;32.17;;
36185;SDS011;22228;53.222;7.446;2023-09-12T10:15:40;40.47;;;36.47;;
36185;SDS011;22228;53.222;7.446;2023-09-12T10:18:04;39.07;;;35.17;;
36185;SDS011;22228;53.222;7.446;2023-09-12T10:20:32;40.10;;;36.13;;
36185;SDS011;22228;53.222;7.446;2023-09-12T10:23:00;39.77;;;35.73;;
36185;SDS011;22228;53.222;7.446;2023-09-12T10:25:30;37.83;;;34.10;;
36185;SDS011;22228;53.222;7.446;2023-09-12T10:27:51;35.97;;;32.47;;
36185;SDS011;22228;53.222;7.446;2023-09-12T10:30:13;35.37;;;31.87;;
36185;SDS011;22228;53.222;7.446;2023-09-12T10:32:34;32.03;;;28.93;;
36185;SDS011;22228;53.222;7.446;2023-09-12T10:34:56;31.33;;;28.23;;
36185;SDS011;22228;53.222;7.446;2023-09-12T10:37:19;28.67;;;25.73;;
36185;SDS011;22228;53.222;7.446;2023-09-12T10:39:42;31.23;;;28.13;;
36185;SDS011;22228;53.222;7.446;2023-09-12T10:42:04;30.53;;;27.67;;
36185;SDS011;22228;53.222;7.446;2023-09-12T10:44:26;30.60;;;27.63;;
36185;SDS011;22228;53.222;7.446;2023-09-12T10:46:48;32.60;;;29.27;;
36185;SDS011;22228;53.222;7.446;2023-09-12T10:49:11;33.63;;;30.37;;
36185;SDS011;22228;53.222;7.446;2023-09-12T10:51:33;30.43;;;27.47;;
36185;SDS011;22228;53.222;7.446;2023-09-12T10:53:57;29.30;;;26.57;;
36185;SDS011;22228;53.222;7.446;2023-09-12T10:56:18;27.87;;;25.17;;
36185;SDS011;22228;53.222;7.446;2023-09-12T11:01:33;30.77;;;27.70;;
36185;SDS011;22228;53.222;7.446;2023-09-12T11:03:54;30.20;;;27.20;;
36185;SDS011;22228;53.222;7.446;2023-09-12T11:06:21;33.17;;;29.90;;
36185;SDS011;22228;53.222;7.446;2023-09-12T11:08:42;32.00;;;29.00;;
36185;SDS011;22228;53.222;7.446;2023-09-12T11:11:19;31.23;;;28.23;;
36185;SDS011;22228;53.222;7.446;2023-09-12T11:13:40;27.80;;;25.30;;
36185;SDS011;22228;53.222;7.446;2023-09-12T11:21:32;29.80;;;26.77;;
36185;SDS011;22228;53.222;7.446;2023-09-12T11:23:53;28.83;;;25.97;;
36185;SDS011;22228;53.222;7.446;2023-09-12T11:26:14;30.07;;;27.13;;
36185;SDS011;22228;53.222;7.446;2023-09-12T11:28:35;27.70;;;25.00;;
36185;SDS011;22228;53.222;7.446;2023-09-12T11:30:56;26.30;;;23.80;;
36185;SDS011;22228;53.222;7.446;2023-09-12T11:33:18;27.87;;;24.87;;
36185;SDS011;22228;53.222;7.446;2023-09-12T11:35:39;27.60;;;24.67;;
36185;SDS011;22228;53.222;7.446;2023-09-12T11:38:00;26.77;;;24.37;;
36185;SDS011;22228;53.222;7.446;2023-09-12T11:40:23;24.60;;;22.33;;
36185;SDS011;22228;53.222;7.446;2023-09-12T11:42:44;26.47;;;23.87;;
36185;SDS011;22228;53.222;7.446;2023-09-12T11:45:07;25.90;;;23.50;;
36185;SDS011;22228;53.222;7.446;2023-09-12T11:47:28;26.73;;;24.03;;
36185;SDS011;22228;53.222;7.446;2023-09-12T11:49:50;24.90;;;22.43;;
36185;SDS011;22228;53.222;7.446;2023-09-12T11:52:12;25.17;;;22.77;;
36185;SDS011;22228;53.222;7.446;2023-09-12T11:54:35;24.40;;;21.83;;
36185;SDS011;22228;53.222;7.446;2023-09-12T11:56:56;24.13;;;21.73;;
36185;SDS011;22228;53.222;7.446;2023-09-12T11:59:18;26.23;;;23.47;;
36185;SDS011;22228;53.222;7.446;2023-09-12T12:01:40;24.27;;;21.87;;
36185;SDS011;22228;53.222;7.446;2023-09-12T12:04:00;26.17;;;23.67;;
36185;SDS011;22228;53.222;7.446;2023-09-12T12:06:22;23.87;;;21.67;;
36185;SDS011;22228;53.222;7.446;2023-09-12T12:08:43;24.37;;;22.07;;
36185;SDS011;22228;53.222;7.446;2023-09-12T12:11:04;23.00;;;20.70;;
36185;SDS011;22228;53.222;7.446;2023-09-12T12:13:27;22.43;;;20.23;;
36185;SDS011;22228;53.222;7.446;2023-09-12T12:15:47;19.70;;;17.70;;
36185;SDS011;22228;53.222;7.446;2023-09-12T12:18:08;20.23;;;18.20;;
36185;SDS011;22228;53.222;7.446;2023-09-12T12:20:28;21.90;;;19.60;;
36185;SDS011;22228;53.222;7.446;2023-09-12T12:22:50;19.73;;;17.80;;
36185;SDS011;22228;53.222;7.446;2023-09-12T12:25:11;19.10;;;17.40;;
36185;SDS011;22228;53.222;7.446;2023-09-12T12:27:32;20.57;;;18.67;;
36185;SDS011;22228;53.222;7.446;2023-09-12T12:29:52;19.50;;;17.70;;
36185;SDS011;22228;53.222;7.446;2023-09-12T12:32:14;19.00;;;17.10;;
36185;SDS011;22228;53.222;7.446;2023-09-12T12:34:35;19.47;;;17.47;;
36185;SDS011;22228;53.222;7.446;2023-09-12T12:36:56;17.27;;;15.57;;
36185;SDS011;22228;53.222;7.446;2023-09-12T12:39:18;18.77;;;16.83;;
36185;SDS011;22228;53.222;7.446;2023-09-12T12:41:40;17.33;;;15.63;;
36185;SDS011;22228;53.222;7.446;2023-09-12T12:44:01;20.00;;;18.00;;
36185;SDS011;22228;53.222;7.446;2023-09-12T12:46:23;22.10;;;20.10;;
36185;SDS011;22228;53.222;7.446;2023-09-12T12:48:43;20.63;;;18.73;;
36185;SDS011;22228;53.222;7.446;2023-09-12T12:51:14;21.00;;;19.03;;
36185;SDS011;22228;53.222;7.446;2023-09-12T12:53:39;15.43;;;13.90;;
36185;SDS011;22228;53.222;7.446;2023-09-12T12:56:02;18.70;;;17.00;;
36185;SDS011;22228;53.222;7.446;2023-09-12T12:58:23;19.93;;;17.90;;
36185;SDS011;22228;53.222;7.446;2023-09-12T13:00:43;18.67;;;16.77;;
36185;SDS011;22228;53.222;7.446;2023-09-12T13:03:04;19.37;;;17.33;;
36185;SDS011;22228;53.222;7.446;2023-09-12T13:05:25;20.03;;;16.70;;
36185;SDS011;22228;53.222;7.446;2023-09-12T13:07:46;17.17;;;15.67;;
36185;SDS011;22228;53.222;7.446;2023-09-12T13:10:07;20.13;;;18.20;;
36185;SDS011;22228;53.222;7.446;2023-09-12T13:12:29;18.50;;;16.80;;
36185;SDS011;22228;53.222;7.446;2023-09-12T13:14:50;18.97;;;17.00;;
36185;SDS011;22228;53.222;7.446;2023-09-12T13:17:11;19.80;;;17.70;;
36185;SDS011;22228;53.222;7.446;2023-09-12T13:19:31;18.03;;;16.43;;
36185;SDS011;22228;53.222;7.446;2023-09-12T13:21:52;15.73;;;14.20;;
36185;SDS011;22228;53.222;7.446;2023-09-12T13:24:12;14.10;;;12.70;;
36185;SDS011;22228;53.222;7.446;2023-09-12T13:26:33;12.90;;;11.67;;
36185;SDS011;22228;53.222;7.446;2023-09-12T13:28:54;12.70;;;11.60;;
36185;SDS011;22228;53.222;7.446;2023-09-12T13:31:15;11.20;;;10.10;;
36185;SDS011;22228;53.222;7.446;2023-09-12T13:33:35;13.07;;;11.97;;
36185;SDS011;22228;53.222;7.446;2023-09-12T13:35:56;13.63;;;12.23;;
36185;SDS011;22228;53.222;7.446;2023-09-12T13:38:17;13.13;;;11.83;;
36185;SDS011;22228;53.222;7.446;2023-09-12T13:40:38;12.37;;;11.37;;
36185;SDS011;22228;53.222;7.446;2023-09-12T13:42:59;12.50;;;11.40;;
36185;SDS011;22228;53.222;7.446;2023-09-12T13:45:21;12.63;;;11.47;;
36185;SDS011;22228;53.222;7.446;2023-09-12T13:47:41;12.70;;;11.50;;
36185;SDS011;22228;53.222;7.446;2023-09-12T13:50:02;11.20;;;10.13;;
36185;SDS011;22228;53.222;7.446;2023-09-12T13:52:23;12.43;;;11.20;;
36185;SDS011;22228;53.222;7.446;2023-09-12T13:54:46;10.70;;;9.60;;
36185;SDS011;22228;53.222;7.446;2023-09-12T13:57:06;11.50;;;10.03;;
36185;SDS011;22228;53.222;7.446;2023-09-12T13:59:27;11.20;;;10.23;;
36185;SDS011;22228;53.222;7.446;2023-09-12T14:01:49;11.87;;;10.77;;
36185;SDS011;22228;53.222;7.446;2023-09-12T14:04:09;9.67;;;8.87;;
36185;SDS011;22228;53.222;7.446;2023-09-12T14:06:31;10.43;;;9.30;;
36185;SDS011;22228;53.222;7.446;2023-09-12T14:08:52;9.33;;;8.43;;
36185;SDS011;22228;53.222;7.446;2023-09-12T14:11:13;10.33;;;9.53;;
36185;SDS011;22228;53.222;7.446;2023-09-12T14:13:34;10.77;;;9.73;;
36185;SDS011;22228;53.222;7.446;2023-09-12T14:15:54;11.60;;;10.53;;
36185;SDS011;22228;53.222;7.446;2023-09-12T14:18:17;9.73;;;8.83;;
36185;SDS011;22228;53.222;7.446;2023-09-12T14:20:37;11.43;;;10.23;;
36185;SDS011;22228;53.222;7.446;2023-09-12T14:22:58;11.33;;;10.27;;
36185;SDS011;22228;53.222;7.446;2023-09-12T14:25:20;12.77;;;11.50;;
36185;SDS011;22228;53.222;7.446;2023-09-12T14:27:41;12.50;;;11.30;;
36185;SDS011;22228;53.222;7.446;2023-09-12T14:30:03;11.23;;;10.10;;
36185;SDS011;22228;53.222;7.446;2023-09-12T14:32:24;10.33;;;9.40;;
36185;SDS011;22228;53.222;7.446;2023-09-12T14:34:46;9.87;;;8.87;;
36185;SDS011;22228;53.222;7.446;2023-09-12T14:37:06;9.87;;;9.07;;
36185;SDS011;22228;53.222;7.446;2023-09-12T14:39:27;8.47;;;7.77;;
36185;SDS011;22228;53.222;7.446;2023-09-12T14:41:48;9.10;;;8.20;;
36185;SDS011;22228;53.222;7.446;2023-09-12T14:44:10;9.50;;;8.50;;
36185;SDS011;22228;53.222;7.446;2023-09-12T14:46:31;11.60;;;10.60;;
36185;SDS011;22228;53.222;7.446;2023-09-12T14:48:51;13.43;;;12.27;;
36185;SDS011;22228;53.222;7.446;2023-09-12T14:51:13;16.67;;;13.70;;
36185;SDS011;22228;53.222;7.446;2023-09-12T14:53:33;15.13;;;10.53;;
36185;SDS011;22228;53.222;7.446;2023-09-12T14:55:54;8.67;;;6.23;;
36185;SDS011;22228;53.222;7.446;2023-09-12T14:58:15;9.53;;;5.00;;
36185;SDS011;22228;53.222;7.446;2023-09-12T15:00:35;9.23;;;3.60;;
36185;SDS011;22228;53.222;7.446;2023-09-12T15:02:56;6.03;;;3.60;;
36185;SDS011;22228;53.222;7.446;2023-09-12T15:05:16;7.70;;;3.27;;
36185;SDS011;22228;53.222;7.446;2023-09-12T15:07:38;7.63;;;3.63;;
36185;SDS011;22228;53.222;7.446;2023-09-12T15:09:59;9.20;;;4.33;;
36185;SDS011;22228;53.222;7.446;2023-09-12T15:12:19;8.40;;;3.77;;
36185;SDS011;22228;53.222;7.446;2023-09-12T15:14:40;8.70;;;4.73;;
36185;SDS011;22228;53.222;7.446;2023-09-12T15:17:02;9.60;;;4.73;;
36185;SDS011;22228;53.222;7.446;2023-09-12T15:19:22;5.37;;;4.10;;
36185;SDS011;22228;53.222;7.446;2023-09-12T15:21:43;7.03;;;4.40;;
36185;SDS011;22228;53.222;7.446;2023-09-12T15:24:05;6.83;;;4.80;;
36185;SDS011;22228;53.222;7.446;2023-09-12T15:26:26;8.60;;;4.93;;
36185;SDS011;22228;53.222;7.446;2023-09-12T15:28:47;5.87;;;4.87;;
36185;SDS011;22228;53.222;7.446;2023-09-12T15:31:07;7.70;;;5.00;;
36185;SDS011;22228;53.222;7.446;2023-09-12T15:33:28;6.20;;;5.00;;
36185;SDS011;22228;53.222;7.446;2023-09-12T15:35:49;5.10;;;4.47;;
36185;SDS011;22228;53.222;7.446;2023-09-12T15:38:09;5.53;;;3.67;;
36185;SDS011;22228;53.222;7.446;2023-09-12T15:40:31;5.67;;;3.47;;
36185;SDS011;22228;53.222;7.446;2023-09-12T15:42:52;4.67;;;3.13;;
36185;SDS011;22228;53.222;7.446;2023-09-12T15:45:12;4.43;;;3.80;;
36185;SDS011;22228;53.222;7.446;2023-09-12T15:47:34;7.60;;;4.60;;
36185;SDS011;22228;53.222;7.446;2023-09-12T15:49:55;6.03;;;4.50;;
36185;SDS011;22228;53.222;7.446;2023-09-12T15:52:15;5.10;;;4.53;;
36185;SDS011;22228;53.222;7.446;2023-09-12T15:54:36;7.17;;;5.10;;
36185;SDS011;22228;53.222;7.446;2023-09-12T15:56:58;6.73;;;5.23;;
36185;SDS011;22228;53.222;7.446;2023-09-12T15:59:18;6.13;;;5.53;;
36185;SDS011;22228;53.222;7.446;2023-09-12T16:01:39;8.23;;;5.20;;
36185;SDS011;22228;53.222;7.446;2023-09-12T16:03:59;6.27;;;4.70;;
36185;SDS011;22228;53.222;7.446;2023-09-12T16:06:20;5.33;;;4.60;;
36185;SDS011;22228;53.222;7.446;2023-09-12T16:08:41;7.33;;;4.40;;
36185;SDS011;22228;53.222;7.446;2023-09-12T16:11:02;6.50;;;4.40;;
36185;SDS011;22228;53.222;7.446;2023-09-12T16:13:24;5.27;;;4.53;;
36185;SDS011;22228;53.222;7.446;2023-09-12T16:15:44;5.83;;;3.93;;
36185;SDS011;22228;53.222;7.446;2023-09-12T16:18:05;5.30;;;4.20;;
36185;SDS011;22228;53.222;7.446;2023-09-12T16:20:26;4.77;;;4.37;;
36185;SDS011;22228;53.222;7.446;2023-09-12T16:22:46;4.80;;;4.40;;
36185;SDS011;22228;53.222;7.446;2023-09-12T16:25:07;4.80;;;4.40;;
36185;SDS011;22228;53.222;7.446;2023-09-12T16:27:28;4.60;;;4.23;;
36185;SDS011;22228;53.222;7.446;2023-09-12T16:29:50;5.57;;;4.50;;
36185;SDS011;22228;53.222;7.446;2023-09-12T16:32:10;4.90;;;4.40;;
36185;SDS011;22228;53.222;7.446;2023-09-12T16:34:31;6.00;;;4.60;;
36185;SDS011;22228;53.222;7.446;2023-09-12T16:36:51;4.97;;;4.57;;
36185;SDS011;22228;53.222;7.446;2023-09-12T16:39:12;4.53;;;4.13;;
36185;SDS011;22228;53.222;7.446;2023-09-12T16:41:32;4.80;;;4.40;;